sensor_id;sensor_type;location;lat;lon;timestamp;P1;durP1;ratioP1;P2;durP2;ratioP2
58302;SDS011;44109;52.398;7.024;2023-06-22T00:02:50;4.80;;;3.67;;
58302;SDS011;44109;52.398;7.024;2023-06-22T00:05:18;5.20;;;3.70;;
58302;SDS011;44109;52.398;7.024;2023-06-22T00:07:45;4.78;;;3.63;;
58302;SDS011;44109;52.398;7.024;2023-06-22T00:10:13;5.18;;;3.38;;
58302;SDS011;44109;52.398;7.024;2023-06-22T00:12:41;9.77;;;3.97;;
58302;SDS011;44109;52.398;7.024;2023-06-22T00:15:09;5.50;;;4.07;;
58302;SDS011;44109;52.398;7.024;2023-06-22T00:17:36;6.53;;;4.82;;
58302;SDS011;44109;52.398;7.024;2023-06-22T00:20:07;5.53;;;4.05;;
58302;SDS011;44109;52.398;7.024;2023-06-22T00:22:36;8.32;;;4.43;;
58302;SDS011;44109;52.398;7.024;2023-06-22T00:25:05;7.55;;;4.10;;
58302;SDS011;44109;52.398;7.024;2023-06-22T00:27:34;8.27;;;5.18;;
58302;SDS011;44109;52.398;7.024;2023-06-22T00:30:03;5.05;;;3.50;;
58302;SDS011;44109;52.398;7.024;2023-06-22T00:32:31;8.98;;;4.25;;
58302;SDS011;44109;52.398;7.024;2023-06-22T00:34:59;7.97;;;4.82;;
58302;SDS011;44109;52.398;7.024;2023-06-22T00:37:28;7.50;;;4.55;;
58302;SDS011;44109;52.398;7.024;2023-06-22T00:39:56;8.13;;;4.82;;
58302;SDS011;44109;52.398;7.024;2023-06-22T00:42:23;7.10;;;4.47;;
58302;SDS011;44109;52.398;7.024;2023-06-22T00:44:51;9.98;;;5.35;;
58302;SDS011;44109;52.398;7.024;2023-06-22T00:47:18;7.65;;;4.53;;
58302;SDS011;44109;52.398;7.024;2023-06-22T00:49:49;8.88;;;5.35;;
58302;SDS011;44109;52.398;7.024;2023-06-22T00:52:18;9.85;;;4.60;;
58302;SDS011;44109;52.398;7.024;2023-06-22T00:54:53;7.90;;;5.38;;
58302;SDS011;44109;52.398;7.024;2023-06-22T00:57:23;9.85;;;5.53;;
58302;SDS011;44109;52.398;7.024;2023-06-22T00:59:53;8.07;;;5.78;;
58302;SDS011;44109;52.398;7.024;2023-06-22T01:02:22;9.88;;;6.03;;
58302;SDS011;44109;52.398;7.024;2023-06-22T01:04:49;9.20;;;5.85;;
58302;SDS011;44109;52.398;7.024;2023-06-22T01:07:19;9.55;;;5.57;;
58302;SDS011;44109;52.398;7.024;2023-06-22T01:09:57;9.77;;;5.32;;
58302;SDS011;44109;52.398;7.024;2023-06-22T01:12:34;10.30;;;5.10;;
58302;SDS011;44109;52.398;7.024;2023-06-22T01:15:11;8.77;;;5.38;;
58302;SDS011;44109;52.398;7.024;2023-06-22T01:17:45;9.88;;;5.70;;
58302;SDS011;44109;52.398;7.024;2023-06-22T01:20:15;9.65;;;6.07;;
58302;SDS011;44109;52.398;7.024;2023-06-22T01:22:46;9.30;;;4.93;;
58302;SDS011;44109;52.398;7.024;2023-06-22T01:25:38;10.30;;;6.20;;
58302;SDS011;44109;52.398;7.024;2023-06-22T01:28:23;8.25;;;5.10;;
58302;SDS011;44109;52.398;7.024;2023-06-22T01:31:13;8.88;;;5.60;;
58302;SDS011;44109;52.398;7.024;2023-06-22T01:33:45;7.00;;;4.72;;
58302;SDS011;44109;52.398;7.024;2023-06-22T01:36:18;8.40;;;5.22;;
58302;SDS011;44109;52.398;7.024;2023-06-22T01:38:48;10.73;;;6.30;;
58302;SDS011;44109;52.398;7.024;2023-06-22T01:41:17;6.72;;;5.40;;
58302;SDS011;44109;52.398;7.024;2023-06-22T01:43:48;8.73;;;6.22;;
58302;SDS011;44109;52.398;7.024;2023-06-22T01:46:17;10.70;;;6.25;;
58302;SDS011;44109;52.398;7.024;2023-06-22T01:48:46;10.43;;;6.05;;
58302;SDS011;44109;52.398;7.024;2023-06-22T01:51:15;10.55;;;6.20;;
58302;SDS011;44109;52.398;7.024;2023-06-22T01:53:43;10.05;;;5.55;;
58302;SDS011;44109;52.398;7.024;2023-06-22T01:56:11;10.80;;;5.68;;
58302;SDS011;44109;52.398;7.024;2023-06-22T01:58:41;10.07;;;6.50;;
58302;SDS011;44109;52.398;7.024;2023-06-22T02:01:20;8.63;;;5.47;;
58302;SDS011;44109;52.398;7.024;2023-06-22T02:03:58;10.55;;;5.72;;
58302;SDS011;44109;52.398;7.024;2023-06-22T02:06:34;11.25;;;6.30;;
58302;SDS011;44109;52.398;7.024;2023-06-22T02:09:07;11.10;;;7.70;;
58302;SDS011;44109;52.398;7.024;2023-06-22T02:14:10;15.10;;;7.40;;
58302;SDS011;44109;52.398;7.024;2023-06-22T02:16:40;13.35;;;8.88;;
58302;SDS011;44109;52.398;7.024;2023-06-22T02:19:09;9.90;;;7.57;;
58302;SDS011;44109;52.398;7.024;2023-06-22T02:21:37;13.27;;;7.97;;
58302;SDS011;44109;52.398;7.024;2023-06-22T02:24:05;9.80;;;6.80;;
58302;SDS011;44109;52.398;7.024;2023-06-22T02:26:32;16.30;;;8.48;;
58302;SDS011;44109;52.398;7.024;2023-06-22T02:29:00;13.30;;;8.55;;
58302;SDS011;44109;52.398;7.024;2023-06-22T02:31:29;13.05;;;8.50;;
58302;SDS011;44109;52.398;7.024;2023-06-22T02:33:57;12.80;;;8.50;;
58302;SDS011;44109;52.398;7.024;2023-06-22T02:36:25;12.90;;;8.13;;
58302;SDS011;44109;52.398;7.024;2023-06-22T02:38:56;12.75;;;8.50;;
58302;SDS011;44109;52.398;7.024;2023-06-22T02:41:26;15.02;;;9.30;;
58302;SDS011;44109;52.398;7.024;2023-06-22T02:43:54;11.18;;;8.13;;
58302;SDS011;44109;52.398;7.024;2023-06-22T02:46:22;14.68;;;8.82;;
58302;SDS011;44109;52.398;7.024;2023-06-22T02:48:51;15.18;;;8.63;;
58302;SDS011;44109;52.398;7.024;2023-06-22T02:51:19;15.80;;;9.13;;
58302;SDS011;44109;52.398;7.024;2023-06-22T02:53:46;14.32;;;8.50;;
58302;SDS011;44109;52.398;7.024;2023-06-22T02:56:18;12.38;;;7.90;;
58302;SDS011;44109;52.398;7.024;2023-06-22T02:58:50;15.53;;;10.27;;
58302;SDS011;44109;52.398;7.024;2023-06-22T03:01:18;13.90;;;8.75;;
58302;SDS011;44109;52.398;7.024;2023-06-22T03:03:49;16.75;;;8.63;;
58302;SDS011;44109;52.398;7.024;2023-06-22T03:06:18;22.42;;;9.57;;
58302;SDS011;44109;52.398;7.024;2023-06-22T03:08:48;12.18;;;8.60;;
58302;SDS011;44109;52.398;7.024;2023-06-22T03:11:16;13.95;;;9.63;;
58302;SDS011;44109;52.398;7.024;2023-06-22T03:13:44;16.63;;;9.75;;
58302;SDS011;44109;52.398;7.024;2023-06-22T03:16:12;17.58;;;8.63;;
58302;SDS011;44109;52.398;7.024;2023-06-22T03:18:40;18.05;;;10.35;;
58302;SDS011;44109;52.398;7.024;2023-06-22T03:21:08;17.88;;;10.77;;
58302;SDS011;44109;52.398;7.024;2023-06-22T03:23:37;16.48;;;10.15;;
58302;SDS011;44109;52.398;7.024;2023-06-22T03:26:04;18.83;;;10.57;;
58302;SDS011;44109;52.398;7.024;2023-06-22T03:28:32;16.35;;;10.23;;
58302;SDS011;44109;52.398;7.024;2023-06-22T03:30:59;16.52;;;10.55;;
58302;SDS011;44109;52.398;7.024;2023-06-22T03:33:27;13.02;;;10.15;;
58302;SDS011;44109;52.398;7.024;2023-06-22T03:35:55;18.38;;;11.75;;
58302;SDS011;44109;52.398;7.024;2023-06-22T03:38:23;14.48;;;10.60;;
58302;SDS011;44109;52.398;7.024;2023-06-22T03:40:52;15.00;;;8.75;;
58302;SDS011;44109;52.398;7.024;2023-06-22T03:43:19;18.02;;;10.27;;
58302;SDS011;44109;52.398;7.024;2023-06-22T03:45:47;13.15;;;7.30;;
58302;SDS011;44109;52.398;7.024;2023-06-22T03:48:15;0.00;;;0.00;;
58302;SDS011;44109;52.398;7.024;2023-06-22T03:50:43;14.30;;;9.15;;
58302;SDS011;44109;52.398;7.024;2023-06-22T03:53:10;20.20;;;11.52;;
58302;SDS011;44109;52.398;7.024;2023-06-22T03:55:45;16.33;;;11.55;;
58302;SDS011;44109;52.398;7.024;2023-06-22T03:58:17;16.00;;;10.57;;
58302;SDS011;44109;52.398;7.024;2023-06-22T04:00:46;22.13;;;11.30;;
58302;SDS011;44109;52.398;7.024;2023-06-22T04:03:14;20.67;;;12.02;;
58302;SDS011;44109;52.398;7.024;2023-06-22T04:05:44;20.85;;;11.45;;
58302;SDS011;44109;52.398;7.024;2023-06-22T04:08:13;17.73;;;10.50;;
58302;SDS011;44109;52.398;7.024;2023-06-22T04:10:41;22.05;;;11.88;;
58302;SDS011;44109;52.398;7.024;2023-06-22T04:13:09;19.98;;;13.13;;
58302;SDS011;44109;52.398;7.024;2023-06-22T04:15:38;17.27;;;11.63;;
58302;SDS011;44109;52.398;7.024;2023-06-22T04:18:06;19.30;;;11.40;;
58302;SDS011;44109;52.398;7.024;2023-06-22T04:20:33;20.08;;;10.55;;
58302;SDS011;44109;52.398;7.024;2023-06-22T04:23:01;17.23;;;10.27;;
58302;SDS011;44109;52.398;7.024;2023-06-22T04:25:29;22.33;;;10.93;;
58302;SDS011;44109;52.398;7.024;2023-06-22T04:27:57;18.33;;;10.70;;
58302;SDS011;44109;52.398;7.024;2023-06-22T04:30:24;18.95;;;10.88;;
58302;SDS011;44109;52.398;7.024;2023-06-22T04:32:54;17.65;;;11.13;;
58302;SDS011;44109;52.398;7.024;2023-06-22T04:35:23;23.38;;;11.95;;
58302;SDS011;44109;52.398;7.024;2023-06-22T04:37:52;15.65;;;10.77;;
58302;SDS011;44109;52.398;7.024;2023-06-22T04:40:21;16.73;;;11.45;;
58302;SDS011;44109;52.398;7.024;2023-06-22T04:42:49;15.70;;;9.57;;
58302;SDS011;44109;52.398;7.024;2023-06-22T04:45:19;16.27;;;10.07;;
58302;SDS011;44109;52.398;7.024;2023-06-22T04:47:47;18.05;;;10.85;;
58302;SDS011;44109;52.398;7.024;2023-06-22T04:50:16;14.98;;;9.80;;
58302;SDS011;44109;52.398;7.024;2023-06-22T04:52:46;18.55;;;9.15;;
58302;SDS011;44109;52.398;7.024;2023-06-22T04:55:14;14.88;;;9.25;;
58302;SDS011;44109;52.398;7.024;2023-06-22T04:57:44;15.43;;;9.15;;
58302;SDS011;44109;52.398;7.024;2023-06-22T05:00:14;19.10;;;10.52;;
58302;SDS011;44109;52.398;7.024;2023-06-22T05:02:44;16.55;;;10.02;;
58302;SDS011;44109;52.398;7.024;2023-06-22T05:05:14;15.18;;;8.98;;
58302;SDS011;44109;52.398;7.024;2023-06-22T05:07:44;16.00;;;9.77;;
58302;SDS011;44109;52.398;7.024;2023-06-22T05:10:14;16.98;;;10.15;;
58302;SDS011;44109;52.398;7.024;2023-06-22T05:12:42;18.92;;;10.43;;
58302;SDS011;44109;52.398;7.024;2023-06-22T05:15:10;20.25;;;10.00;;
58302;SDS011;44109;52.398;7.024;2023-06-22T05:17:37;14.30;;;9.05;;
58302;SDS011;44109;52.398;7.024;2023-06-22T05:20:09;12.20;;;8.18;;
58302;SDS011;44109;52.398;7.024;2023-06-22T05:22:39;13.60;;;7.38;;
58302;SDS011;44109;52.398;7.024;2023-06-22T05:25:09;10.35;;;6.35;;
58302;SDS011;44109;52.398;7.024;2023-06-22T05:27:38;10.15;;;6.30;;
58302;SDS011;44109;52.398;7.024;2023-06-22T05:30:06;8.10;;;5.70;;
58302;SDS011;44109;52.398;7.024;2023-06-22T05:32:35;12.93;;;6.20;;
58302;SDS011;44109;52.398;7.024;2023-06-22T05:35:04;10.20;;;6.85;;
58302;SDS011;44109;52.398;7.024;2023-06-22T05:37:32;7.95;;;5.82;;
58302;SDS011;44109;52.398;7.024;2023-06-22T05:40:02;10.02;;;5.32;;
58302;SDS011;44109;52.398;7.024;2023-06-22T05:42:30;10.00;;;5.53;;
58302;SDS011;44109;52.398;7.024;2023-06-22T05:44:58;8.10;;;5.15;;
58302;SDS011;44109;52.398;7.024;2023-06-22T05:47:25;9.30;;;5.50;;
58302;SDS011;44109;52.398;7.024;2023-06-22T05:49:53;6.45;;;4.68;;
58302;SDS011;44109;52.398;7.024;2023-06-22T05:52:20;6.93;;;4.82;;
58302;SDS011;44109;52.398;7.024;2023-06-22T05:54:48;6.65;;;3.97;;
58302;SDS011;44109;52.398;7.024;2023-06-22T05:57:17;9.75;;;4.50;;
58302;SDS011;44109;52.398;7.024;2023-06-22T05:59:47;6.22;;;3.95;;
58302;SDS011;44109;52.398;7.024;2023-06-22T06:02:15;7.35;;;4.80;;
58302;SDS011;44109;52.398;7.024;2023-06-22T06:04:42;6.45;;;3.95;;
58302;SDS011;44109;52.398;7.024;2023-06-22T06:07:10;5.80;;;3.08;;
58302;SDS011;44109;52.398;7.024;2023-06-22T06:09:37;6.20;;;3.58;;
58302;SDS011;44109;52.398;7.024;2023-06-22T06:12:05;9.07;;;4.32;;
58302;SDS011;44109;52.398;7.024;2023-06-22T06:14:35;7.75;;;4.57;;
58302;SDS011;44109;52.398;7.024;2023-06-22T06:17:03;6.75;;;3.70;;
58302;SDS011;44109;52.398;7.024;2023-06-22T06:19:31;6.38;;;4.22;;
58302;SDS011;44109;52.398;7.024;2023-06-22T06:21:58;6.97;;;4.00;;
58302;SDS011;44109;52.398;7.024;2023-06-22T06:24:26;7.28;;;3.72;;
58302;SDS011;44109;52.398;7.024;2023-06-22T06:26:53;8.45;;;3.80;;
58302;SDS011;44109;52.398;7.024;2023-06-22T06:29:21;6.30;;;4.13;;
58302;SDS011;44109;52.398;7.024;2023-06-22T06:31:50;6.03;;;4.18;;
58302;SDS011;44109;52.398;7.024;2023-06-22T06:34:18;5.78;;;3.53;;
58302;SDS011;44109;52.398;7.024;2023-06-22T06:36:45;6.35;;;3.88;;
58302;SDS011;44109;52.398;7.024;2023-06-22T06:39:13;6.43;;;4.60;;
58302;SDS011;44109;52.398;7.024;2023-06-22T06:41:42;3.47;;;2.83;;
58302;SDS011;44109;52.398;7.024;2023-06-22T06:44:09;4.75;;;3.33;;
58302;SDS011;44109;52.398;7.024;2023-06-22T06:46:37;4.95;;;3.00;;
58302;SDS011;44109;52.398;7.024;2023-06-22T06:49:06;6.13;;;3.78;;
58302;SDS011;44109;52.398;7.024;2023-06-22T06:51:34;6.65;;;3.78;;
58302;SDS011;44109;52.398;7.024;2023-06-22T06:54:01;4.43;;;2.78;;
58302;SDS011;44109;52.398;7.024;2023-06-22T06:56:30;7.35;;;2.80;;
58302;SDS011;44109;52.398;7.024;2023-06-22T06:58:58;3.85;;;2.63;;
58302;SDS011;44109;52.398;7.024;2023-06-22T07:01:26;4.90;;;3.03;;
58302;SDS011;44109;52.398;7.024;2023-06-22T07:03:59;4.20;;;2.70;;
58302;SDS011;44109;52.398;7.024;2023-06-22T07:06:28;4.25;;;2.90;;
58302;SDS011;44109;52.398;7.024;2023-06-22T07:08:58;5.35;;;2.35;;
58302;SDS011;44109;52.398;7.024;2023-06-22T07:11:25;3.78;;;2.17;;
58302;SDS011;44109;52.398;7.024;2023-06-22T07:13:56;4.13;;;2.47;;
58302;SDS011;44109;52.398;7.024;2023-06-22T07:16:24;4.35;;;1.67;;
58302;SDS011;44109;52.398;7.024;2023-06-22T07:18:53;3.75;;;2.13;;
58302;SDS011;44109;52.398;7.024;2023-06-22T07:21:21;4.63;;;2.78;;
58302;SDS011;44109;52.398;7.024;2023-06-22T07:23:50;4.47;;;2.40;;
58302;SDS011;44109;52.398;7.024;2023-06-22T07:26:18;3.40;;;1.95;;
58302;SDS011;44109;52.398;7.024;2023-06-22T07:28:45;3.78;;;2.03;;
58302;SDS011;44109;52.398;7.024;2023-06-22T07:31:13;4.35;;;1.90;;
58302;SDS011;44109;52.398;7.024;2023-06-22T07:33:40;3.08;;;1.67;;
58302;SDS011;44109;52.398;7.024;2023-06-22T07:36:08;2.83;;;1.88;;
58302;SDS011;44109;52.398;7.024;2023-06-22T07:38:36;3.58;;;1.90;;
58302;SDS011;44109;52.398;7.024;2023-06-22T07:41:05;3.30;;;1.75;;
58302;SDS011;44109;52.398;7.024;2023-06-22T07:43:32;3.35;;;1.73;;
58302;SDS011;44109;52.398;7.024;2023-06-22T07:46:02;2.67;;;1.25;;
58302;SDS011;44109;52.398;7.024;2023-06-22T07:48:30;2.28;;;1.35;;
58302;SDS011;44109;52.398;7.024;2023-06-22T07:50:58;3.90;;;2.30;;
58302;SDS011;44109;52.398;7.024;2023-06-22T07:53:26;12.38;;;3.08;;
58302;SDS011;44109;52.398;7.024;2023-06-22T07:55:54;2.95;;;1.63;;
58302;SDS011;44109;52.398;7.024;2023-06-22T07:58:23;3.33;;;1.80;;
58302;SDS011;44109;52.398;7.024;2023-06-22T08:00:50;3.15;;;1.73;;
58302;SDS011;44109;52.398;7.024;2023-06-22T08:03:18;3.00;;;1.90;;
58302;SDS011;44109;52.398;7.024;2023-06-22T08:05:46;4.55;;;2.03;;
58302;SDS011;44109;52.398;7.024;2023-06-22T08:08:14;3.00;;;1.67;;
58302;SDS011;44109;52.398;7.024;2023-06-22T08:10:42;2.17;;;1.30;;
58302;SDS011;44109;52.398;7.024;2023-06-22T08:13:10;2.67;;;1.67;;
58302;SDS011;44109;52.398;7.024;2023-06-22T08:15:39;3.85;;;1.55;;
58302;SDS011;44109;52.398;7.024;2023-06-22T08:18:06;2.20;;;1.67;;
58302;SDS011;44109;52.398;7.024;2023-06-22T08:20:34;2.33;;;1.52;;
58302;SDS011;44109;52.398;7.024;2023-06-22T08:23:02;3.35;;;1.90;;
58302;SDS011;44109;52.398;7.024;2023-06-22T08:25:32;3.30;;;1.63;;
58302;SDS011;44109;52.398;7.024;2023-06-22T08:28:00;4.05;;;2.28;;
58302;SDS011;44109;52.398;7.024;2023-06-22T08:30:28;4.32;;;1.73;;
58302;SDS011;44109;52.398;7.024;2023-06-22T08:32:57;1.90;;;1.50;;
58302;SDS011;44109;52.398;7.024;2023-06-22T08:35:24;3.35;;;2.10;;
58302;SDS011;44109;52.398;7.024;2023-06-22T08:37:52;2.80;;;1.60;;
58302;SDS011;44109;52.398;7.024;2023-06-22T08:40:21;4.93;;;2.45;;
58302;SDS011;44109;52.398;7.024;2023-06-22T08:42:48;3.25;;;2.10;;
58302;SDS011;44109;52.398;7.024;2023-06-22T08:45:16;3.92;;;1.75;;
58302;SDS011;44109;52.398;7.024;2023-06-22T08:47:44;3.60;;;1.73;;
58302;SDS011;44109;52.398;7.024;2023-06-22T08:50:13;4.35;;;2.25;;
58302;SDS011;44109;52.398;7.024;2023-06-22T08:55:27;3.80;;;2.28;;
58302;SDS011;44109;52.398;7.024;2023-06-22T08:57:54;2.90;;;2.13;;
58302;SDS011;44109;52.398;7.024;2023-06-22T09:00:22;2.28;;;1.63;;
58302;SDS011;44109;52.398;7.024;2023-06-22T09:02:49;3.97;;;2.90;;
58302;SDS011;44109;52.398;7.024;2023-06-22T09:05:18;6.05;;;3.60;;
58302;SDS011;44109;52.398;7.024;2023-06-22T09:07:47;7.18;;;2.10;;
58302;SDS011;44109;52.398;7.024;2023-06-22T09:10:15;4.38;;;2.05;;
58302;SDS011;44109;52.398;7.024;2023-06-22T09:12:43;4.53;;;2.67;;
58302;SDS011;44109;52.398;7.024;2023-06-22T09:15:11;4.68;;;2.38;;
58302;SDS011;44109;52.398;7.024;2023-06-22T09:17:40;4.03;;;2.33;;
58302;SDS011;44109;52.398;7.024;2023-06-22T09:20:08;4.63;;;2.72;;
58302;SDS011;44109;52.398;7.024;2023-06-22T09:22:38;3.58;;;1.90;;
58302;SDS011;44109;52.398;7.024;2023-06-22T09:25:06;3.90;;;2.30;;
58302;SDS011;44109;52.398;7.024;2023-06-22T09:27:35;2.95;;;2.13;;
58302;SDS011;44109;52.398;7.024;2023-06-22T09:30:03;2.75;;;1.85;;
58302;SDS011;44109;52.398;7.024;2023-06-22T09:32:32;4.03;;;2.05;;
58302;SDS011;44109;52.398;7.024;2023-06-22T09:35:01;5.63;;;2.75;;
58302;SDS011;44109;52.398;7.024;2023-06-22T09:37:32;6.47;;;3.22;;
58302;SDS011;44109;52.398;7.024;2023-06-22T09:40:01;4.00;;;2.05;;
58302;SDS011;44109;52.398;7.024;2023-06-22T09:42:34;4.00;;;2.28;;
58302;SDS011;44109;52.398;7.024;2023-06-22T09:45:01;4.03;;;2.72;;
58302;SDS011;44109;52.398;7.024;2023-06-22T09:47:29;2.80;;;2.00;;
58302;SDS011;44109;52.398;7.024;2023-06-22T09:49:57;5.80;;;2.78;;
58302;SDS011;44109;52.398;7.024;2023-06-22T09:52:25;7.43;;;2.85;;
58302;SDS011;44109;52.398;7.024;2023-06-22T09:54:53;4.78;;;3.10;;
58302;SDS011;44109;52.398;7.024;2023-06-22T09:57:22;3.15;;;2.10;;
58302;SDS011;44109;52.398;7.024;2023-06-22T09:59:49;6.32;;;2.67;;
58302;SDS011;44109;52.398;7.024;2023-06-22T10:02:17;3.78;;;2.58;;
58302;SDS011;44109;52.398;7.024;2023-06-22T10:04:45;4.20;;;2.00;;
58302;SDS011;44109;52.398;7.024;2023-06-22T10:07:12;5.43;;;2.40;;
58302;SDS011;44109;52.398;7.024;2023-06-22T10:09:40;3.05;;;2.15;;
58302;SDS011;44109;52.398;7.024;2023-06-22T10:12:07;4.65;;;2.35;;
58302;SDS011;44109;52.398;7.024;2023-06-22T10:14:37;5.07;;;3.00;;
58302;SDS011;44109;52.398;7.024;2023-06-22T10:17:05;3.53;;;2.53;;
58302;SDS011;44109;52.398;7.024;2023-06-22T10:19:34;4.05;;;2.20;;
58302;SDS011;44109;52.398;7.024;2023-06-22T10:22:03;3.60;;;2.25;;
58302;SDS011;44109;52.398;7.024;2023-06-22T10:24:32;3.28;;;2.30;;
58302;SDS011;44109;52.398;7.024;2023-06-22T10:27:00;4.50;;;2.92;;
58302;SDS011;44109;52.398;7.024;2023-06-22T10:29:28;2.80;;;2.03;;
58302;SDS011;44109;52.398;7.024;2023-06-22T10:31:57;5.10;;;2.70;;
58302;SDS011;44109;52.398;7.024;2023-06-22T10:34:25;3.17;;;2.30;;
58302;SDS011;44109;52.398;7.024;2023-06-22T10:36:52;4.90;;;2.38;;
58302;SDS011;44109;52.398;7.024;2023-06-22T10:39:20;5.22;;;2.60;;
58302;SDS011;44109;52.398;7.024;2023-06-22T10:41:47;3.78;;;2.30;;
58302;SDS011;44109;52.398;7.024;2023-06-22T10:44:15;4.72;;;3.20;;
58302;SDS011;44109;52.398;7.024;2023-06-22T10:46:43;5.18;;;2.92;;
58302;SDS011;44109;52.398;7.024;2023-06-22T10:49:12;3.28;;;2.40;;
58302;SDS011;44109;52.398;7.024;2023-06-22T10:51:39;8.00;;;2.35;;
58302;SDS011;44109;52.398;7.024;2023-06-22T10:54:07;4.45;;;2.42;;
58302;SDS011;44109;52.398;7.024;2023-06-22T10:56:35;6.07;;;3.40;;
58302;SDS011;44109;52.398;7.024;2023-06-22T10:59:02;5.20;;;3.00;;
58302;SDS011;44109;52.398;7.024;2023-06-22T11:01:30;4.55;;;3.13;;
58302;SDS011;44109;52.398;7.024;2023-06-22T11:03:59;5.85;;;2.67;;
58302;SDS011;44109;52.398;7.024;2023-06-22T11:06:28;5.68;;;3.35;;
58302;SDS011;44109;52.398;7.024;2023-06-22T11:08:56;5.75;;;3.30;;
58302;SDS011;44109;52.398;7.024;2023-06-22T11:11:25;5.82;;;3.38;;
58302;SDS011;44109;52.398;7.024;2023-06-22T11:13:52;4.50;;;2.80;;
58302;SDS011;44109;52.398;7.024;2023-06-22T11:16:20;4.10;;;2.85;;
58302;SDS011;44109;52.398;7.024;2023-06-22T11:18:47;5.93;;;3.25;;
58302;SDS011;44109;52.398;7.024;2023-06-22T11:21:15;6.15;;;2.90;;
58302;SDS011;44109;52.398;7.024;2023-06-22T11:23:44;5.85;;;2.75;;
58302;SDS011;44109;52.398;7.024;2023-06-22T11:26:12;3.88;;;2.47;;
58302;SDS011;44109;52.398;7.024;2023-06-22T11:28:40;4.95;;;3.13;;
58302;SDS011;44109;52.398;7.024;2023-06-22T11:31:07;4.80;;;3.28;;
58302;SDS011;44109;52.398;7.024;2023-06-22T11:33:35;3.90;;;2.58;;
58302;SDS011;44109;52.398;7.024;2023-06-22T11:36:03;5.03;;;2.97;;
58302;SDS011;44109;52.398;7.024;2023-06-22T11:38:31;11.60;;;2.58;;
58302;SDS011;44109;52.398;7.024;2023-06-22T11:41:00;6.30;;;3.70;;
58302;SDS011;44109;52.398;7.024;2023-06-22T11:43:28;5.47;;;3.70;;
58302;SDS011;44109;52.398;7.024;2023-06-22T11:45:55;8.43;;;4.57;;
58302;SDS011;44109;52.398;7.024;2023-06-22T11:48:23;4.57;;;3.03;;
58302;SDS011;44109;52.398;7.024;2023-06-22T11:50:51;6.65;;;4.07;;
58302;SDS011;44109;52.398;7.024;2023-06-22T11:53:20;5.22;;;3.38;;
58302;SDS011;44109;52.398;7.024;2023-06-22T11:55:48;5.63;;;2.80;;
58302;SDS011;44109;52.398;7.024;2023-06-22T11:58:17;6.53;;;3.28;;
58302;SDS011;44109;52.398;7.024;2023-06-22T12:00:44;7.25;;;3.20;;
58302;SDS011;44109;52.398;7.024;2023-06-22T12:03:12;7.10;;;4.32;;
58302;SDS011;44109;52.398;7.024;2023-06-22T12:05:40;5.55;;;3.58;;
58302;SDS011;44109;52.398;7.024;2023-06-22T12:08:08;5.32;;;3.55;;
58302;SDS011;44109;52.398;7.024;2023-06-22T12:10:36;6.43;;;3.55;;
58302;SDS011;44109;52.398;7.024;2023-06-22T12:13:03;6.07;;;3.67;;
58302;SDS011;44109;52.398;7.024;2023-06-22T12:15:32;6.10;;;3.97;;
58302;SDS011;44109;52.398;7.024;2023-06-22T12:18:00;4.47;;;2.78;;
58302;SDS011;44109;52.398;7.024;2023-06-22T12:20:28;5.20;;;3.25;;
58302;SDS011;44109;52.398;7.024;2023-06-22T12:22:57;4.15;;;3.53;;
58302;SDS011;44109;52.398;7.024;2023-06-22T12:25:25;4.10;;;2.97;;
58302;SDS011;44109;52.398;7.024;2023-06-22T12:27:52;6.95;;;3.83;;
58302;SDS011;44109;52.398;7.024;2023-06-22T12:30:21;4.70;;;2.80;;
58302;SDS011;44109;52.398;7.024;2023-06-22T12:32:50;5.43;;;3.75;;
58302;SDS011;44109;52.398;7.024;2023-06-22T12:35:17;6.20;;;3.38;;
58302;SDS011;44109;52.398;7.024;2023-06-22T12:37:45;4.25;;;2.10;;
58302;SDS011;44109;52.398;7.024;2023-06-22T12:40:12;4.82;;;3.30;;
58302;SDS011;44109;52.398;7.024;2023-06-22T12:42:40;5.18;;;2.88;;
58302;SDS011;44109;52.398;7.024;2023-06-22T12:45:08;4.68;;;2.95;;
58302;SDS011;44109;52.398;7.024;2023-06-22T12:47:37;6.45;;;3.60;;
58302;SDS011;44109;52.398;7.024;2023-06-22T12:50:06;6.15;;;3.85;;
58302;SDS011;44109;52.398;7.024;2023-06-22T12:52:36;6.35;;;3.67;;
58302;SDS011;44109;52.398;7.024;2023-06-22T12:55:06;5.43;;;3.95;;
58302;SDS011;44109;52.398;7.024;2023-06-22T12:57:35;4.80;;;3.03;;
58302;SDS011;44109;52.398;7.024;2023-06-22T13:00:03;4.47;;;3.13;;
58302;SDS011;44109;52.398;7.024;2023-06-22T13:02:33;5.45;;;3.70;;
58302;SDS011;44109;52.398;7.024;2023-06-22T13:05:02;4.70;;;3.60;;
58302;SDS011;44109;52.398;7.024;2023-06-22T13:07:33;7.47;;;3.22;;
58302;SDS011;44109;52.398;7.024;2023-06-22T13:10:00;5.50;;;3.65;;
58302;SDS011;44109;52.398;7.024;2023-06-22T13:12:28;5.45;;;3.78;;
58302;SDS011;44109;52.398;7.024;2023-06-22T13:14:56;6.85;;;4.22;;
58302;SDS011;44109;52.398;7.024;2023-06-22T13:17:23;7.13;;;3.60;;
58302;SDS011;44109;52.398;7.024;2023-06-22T13:19:51;5.18;;;3.63;;
58302;SDS011;44109;52.398;7.024;2023-06-22T13:22:29;6.78;;;4.07;;
58302;SDS011;44109;52.398;7.024;2023-06-22T13:24:59;5.30;;;3.90;;
58302;SDS011;44109;52.398;7.024;2023-06-22T13:27:28;8.00;;;3.95;;
58302;SDS011;44109;52.398;7.024;2023-06-22T13:29:55;6.78;;;4.28;;
58302;SDS011;44109;52.398;7.024;2023-06-22T13:32:23;5.80;;;3.33;;
58302;SDS011;44109;52.398;7.024;2023-06-22T13:34:52;5.75;;;3.47;;
58302;SDS011;44109;52.398;7.024;2023-06-22T13:37:21;5.57;;;3.40;;
58302;SDS011;44109;52.398;7.024;2023-06-22T13:39:49;7.00;;;3.78;;
58302;SDS011;44109;52.398;7.024;2023-06-22T13:42:18;7.75;;;4.75;;
58302;SDS011;44109;52.398;7.024;2023-06-22T13:44:45;6.53;;;4.55;;
58302;SDS011;44109;52.398;7.024;2023-06-22T13:47:13;9.55;;;5.05;;
58302;SDS011;44109;52.398;7.024;2023-06-22T13:49:41;5.82;;;4.05;;
58302;SDS011;44109;52.398;7.024;2023-06-22T13:52:08;8.32;;;4.45;;
58302;SDS011;44109;52.398;7.024;2023-06-22T13:54:38;6.80;;;4.97;;
58302;SDS011;44109;52.398;7.024;2023-06-22T13:57:06;6.32;;;4.03;;
58302;SDS011;44109;52.398;7.024;2023-06-22T13:59:35;6.70;;;4.65;;
58302;SDS011;44109;52.398;7.024;2023-06-22T14:02:03;8.25;;;5.72;;
58302;SDS011;44109;52.398;7.024;2023-06-22T14:04:31;8.40;;;5.13;;
58302;SDS011;44109;52.398;7.024;2023-06-22T14:06:59;8.68;;;5.35;;
58302;SDS011;44109;52.398;7.024;2023-06-22T14:09:26;10.70;;;5.18;;
58302;SDS011;44109;52.398;7.024;2023-06-22T14:11:54;7.00;;;4.35;;
58302;SDS011;44109;52.398;7.024;2023-06-22T14:14:22;9.52;;;5.35;;
58302;SDS011;44109;52.398;7.024;2023-06-22T14:16:51;10.25;;;6.00;;
58302;SDS011;44109;52.398;7.024;2023-06-22T14:19:19;10.48;;;6.22;;
58302;SDS011;44109;52.398;7.024;2023-06-22T14:21:46;9.15;;;5.22;;
58302;SDS011;44109;52.398;7.024;2023-06-22T14:24:14;14.80;;;6.28;;
58302;SDS011;44109;52.398;7.024;2023-06-22T14:26:41;9.18;;;6.22;;
58302;SDS011;44109;52.398;7.024;2023-06-22T14:29:09;8.85;;;6.55;;
58302;SDS011;44109;52.398;7.024;2023-06-22T14:31:36;9.23;;;6.43;;
58302;SDS011;44109;52.398;7.024;2023-06-22T14:34:05;8.70;;;5.03;;
58302;SDS011;44109;52.398;7.024;2023-06-22T14:36:33;10.82;;;6.72;;
58302;SDS011;44109;52.398;7.024;2023-06-22T14:39:01;12.93;;;7.35;;
58302;SDS011;44109;52.398;7.024;2023-06-22T14:41:29;10.80;;;7.43;;
58302;SDS011;44109;52.398;7.024;2023-06-22T14:43:57;10.43;;;7.47;;
58302;SDS011;44109;52.398;7.024;2023-06-22T14:46:25;10.88;;;6.40;;
58302;SDS011;44109;52.398;7.024;2023-06-22T14:48:52;11.05;;;7.75;;
58302;SDS011;44109;52.398;7.024;2023-06-22T14:51:21;11.10;;;6.32;;
58302;SDS011;44109;52.398;7.024;2023-06-22T14:53:49;11.15;;;7.43;;
58302;SDS011;44109;52.398;7.024;2023-06-22T14:56:17;12.35;;;7.03;;
58302;SDS011;44109;52.398;7.024;2023-06-22T14:58:44;12.73;;;6.75;;